Time;durP1;ratioP1;P1;durP2;ratioP2;P2;SDS_P1;SDS_P2;PMS_P1;PMS_P2;Temp;Humidity;BMP_temperature;BMP_pressure;BME280_temperature;BME280_humidity;BME280_pressure;Samples;Min_cycle;Max_cycle;Signal;HPM_P1;HPM_P2
2022/08/13 00:00:41;;;;;;;1.65;1.55;;;;;;;22.64;63.34;99111.00;5054601;28;20192;-79
2022/08/13 00:03:18;;;;;;;2.13;1.50;;;;;;;22.69;63.75;99107.78;5054642;28;20196;-78
2022/08/13 00:06:10;;;;;;;3.55;1.70;;;;;;;22.67;63.80;99101.69;5054343;28;20251;-79
2022/08/13 00:08:55;;;;;;;2.53;1.70;;;;;;;22.64;63.86;99112.84;5054023;28;20197;-79
2022/08/13 00:14:31;;;;;;;1.95;1.48;;;;;;;22.65;64.33;99107.28;5054549;28;20671;-79
2022/08/13 00:17:06;;;;;;;2.63;1.60;;;;;;;22.44;64.79;99105.19;5090201;28;20207;-78
2022/08/13 00:19:38;;;;;;;4.80;1.70;;;;;;;22.61;64.99;99102.41;5101150;28;20496;-79
2022/08/13 00:22:09;;;;;;;3.80;1.65;;;;;;;22.45;65.29;99103.31;5095202;28;20310;-78
2022/08/13 00:24:59;;;;;;;5.32;1.65;;;;;;;22.49;65.94;99107.38;5100154;27;20250;-79
2022/08/13 00:27:28;;;;;;;3.15;1.50;;;;;;;22.36;66.40;99099.81;5092569;28;20650;-79
2022/08/13 00:30:18;;;;;;;4.00;1.70;;;;;;;22.38;66.55;99105.03;5096795;28;20206;-79
2022/08/13 00:32:56;;;;;;;2.90;1.77;;;;;;;22.25;67.08;99097.50;5095085;28;20646;-79
2022/08/13 00:35:25;;;;;;;2.42;1.60;;;;;;;22.16;68.38;99098.53;5097850;28;20191;-79
2022/08/13 00:38:13;;;;;;;3.42;1.55;;;;;;;22.08;68.84;99107.50;5050356;28;20188;-79
2022/08/13 00:40:45;;;;;;;3.58;1.70;;;;;;;21.94;69.75;99100.94;5098794;28;20219;-79
2022/08/13 00:43:30;;;;;;;2.92;1.83;;;;;;;22.08;69.55;99102.09;5096262;28;20249;-79
2022/08/13 00:46:00;;;;;;;1.80;1.58;;;;;;;22.14;69.40;99097.88;5098642;28;20257;-79
2022/08/13 00:48:46;;;;;;;4.65;1.38;;;;;;;22.09;69.42;99097.56;5094552;28;20199;-78
2022/08/13 00:51:23;;;;;;;2.38;1.63;;;;;;;22.15;68.86;99086.06;5090611;28;20223;-79
2022/08/13 00:54:18;;;;;;;1.95;1.77;;;;;;;22.10;69.21;99099.22;5096538;28;20219;-79
2022/08/13 00:56:48;;;;;;;2.90;1.73;;;;;;;22.08;69.65;99096.72;5038687;28;20185;-79
2022/08/13 00:59:25;;;;;;;1.98;1.52;;;;;;;22.11;69.69;99096.38;5039599;28;20229;-79
2022/08/13 01:02:10;;;;;;;1.73;1.45;;;;;;;22.04;70.35;99092.66;5039264;28;20200;-79
2022/08/13 01:04:42;;;;;;;4.93;1.73;;;;;;;22.15;69.50;99099.56;5037397;28;20711;-80
2022/08/13 01:07:19;;;;;;;2.85;1.40;;;;;;;22.13;69.23;99098.91;5037735;28;20202;-79
2022/08/13 01:10:13;;;;;;;2.60;1.40;;;;;;;22.07;70.02;99096.88;5038548;28;20224;-79
2022/08/13 01:12:52;;;;;;;3.70;1.48;;;;;;;21.72;71.97;99098.97;5034842;28;20218;-79
2022/08/13 01:15:23;;;;;;;2.97;1.70;;;;;;;21.54;73.30;99107.25;5076592;28;20210;-79
2022/08/13 01:18:20;;;;;;;8.02;1.90;;;;;;;21.42;73.97;99098.66;5100910;28;20192;-78
2022/08/13 01:21:08;;;;;;;2.67;1.80;;;;;;;21.60;72.91;99106.53;5101307;28;20716;-79
2022/08/13 01:23:44;;;;;;;3.13;1.55;;;;;;;21.46;73.97;99101.00;5100531;28;20226;-78
2022/08/13 01:26:36;;;;;;;3.07;1.60;;;;;;;21.36;74.68;99102.03;5100290;28;20190;-79
2022/08/13 01:29:16;;;;;;;3.45;1.83;;;;;;;21.29;75.58;99102.84;5096949;28;20215;-79
2022/08/13 01:31:51;;;;;;;3.42;1.70;;;;;;;21.30;75.83;99108.06;5059498;28;20225;-79
2022/08/13 01:34:25;;;;;;;4.60;1.60;;;;;;;21.32;75.92;99103.34;5093826;28;20207;-79
2022/08/13 01:36:54;;;;;;;2.83;1.60;;;;;;;21.11;77.92;99102.97;5094862;28;20195;-79
2022/08/13 01:39:26;;;;;;;3.65;1.67;;;;;;;21.12;78.57;99105.50;5091627;28;20226;-79
2022/08/13 01:42:08;;;;;;;3.25;1.50;;;;;;;21.07;79.40;99110.56;5095071;28;20310;-79
2022/08/13 01:44:38;;;;;;;4.25;1.80;;;;;;;20.75;81.86;99105.09;5095025;28;20196;-79
2022/08/13 01:50:30;;;;;;;2.00;1.80;;;;;;;20.60;85.13;99107.56;5094122;28;20237;-79
2022/08/13 01:53:03;;;;;;;2.70;1.75;;;;;;;20.41;86.63;99105.13;5092117;28;20223;-79
2022/08/13 01:55:39;;;;;;;2.67;1.80;;;;;;;20.53;86.15;99111.91;5095028;28;20693;-79
2022/08/13 01:58:30;;;;;;;3.40;1.80;;;;;;;20.26;88.66;99112.94;5095101;28;20192;-79
2022/08/13 02:01:06;;;;;;;3.67;1.73;;;;;;;20.17;89.25;99109.41;5095121;28;20192;-79
2022/08/13 02:03:37;;;;;;;1.60;1.50;;;;;;;20.19;89.92;99110.06;5093417;28;20393;-79
2022/08/13 02:06:10;;;;;;;2.07;1.90;;;;;;;20.07;90.43;99105.97;5096989;27;20192;-79
2022/08/13 02:08:57;;;;;;;1.70;1.60;;;;;;;20.15;89.79;99100.63;5095211;28;20202;-79
2022/08/13 02:11:30;;;;;;;2.77;1.70;;;;;;;20.14;90.12;99108.88;5096894;27;20285;-79
2022/08/13 02:13:59;;;;;;;5.03;2.00;;;;;;;19.98;90.95;99099.72;5094518;28;20696;-79
2022/08/13 02:16:30;;;;;;;3.00;1.90;;;;;;;20.09;90.12;99103.97;5071837;28;20218;-79
2022/08/13 02:19:00;;;;;;;4.40;1.70;;;;;;;20.12;89.85;99108.19;5093159;28;20192;-79
2022/08/13 02:21:46;;;;;;;2.13;1.93;;;;;;;20.28;89.36;99106.44;5093465;28;20195;-79
2022/08/13 02:24:15;;;;;;;4.40;2.10;;;;;;;20.23;89.24;99106.06;5090332;28;20207;-79
2022/08/13 02:26:50;;;;;;;5.53;2.03;;;;;;;20.27;88.98;99103.91;5096626;27;20207;-79
2022/08/13 02:29:24;;;;;;;2.50;2.17;;;;;;;20.22;89.17;99099.00;5089361;28;20249;-79
2022/08/13 02:31:53;;;;;;;5.30;2.00;;;;;;;20.16;89.68;99096.09;5096414;28;20269;-79
2022/08/13 02:34:41;;;;;;;5.20;1.83;;;;;;;20.18;90.08;99099.50;5096957;28;20200;-79
2022/08/13 02:37:12;;;;;;;3.73;1.80;;;;;;;20.11;90.03;99096.59;5089947;28;20627;-79
2022/08/13 02:40:03;;;;;;;2.27;1.70;;;;;;;20.10;90.00;99105.66;5101038;28;20203;-79
2022/08/13 02:42:35;;;;;;;3.70;2.00;;;;;;;19.99;91.36;99112.16;5093910;28;20192;-79
2022/08/13 02:45:05;;;;;;;3.90;2.30;;;;;;;19.91;91.85;99116.63;5089835;28;20187;-79
2022/08/13 02:47:38;;;;;;;4.33;2.20;;;;;;;19.45;95.07;99106.03;5090237;28;20197;-79
2022/08/13 02:50:13;;;;;;;2.53;2.00;;;;;;;19.51;95.63;99112.66;5089450;28;20199;-79
2022/08/13 02:52:42;;;;;;;4.07;1.80;;;;;;;19.42;96.65;99105.50;5096275;27;20223;-79
2022/08/13 02:55:29;;;;;;;2.30;1.73;;;;;;;19.30;97.86;99102.25;5093757;28;20194;-79
2022/08/13 02:58:04;;;;;;;4.67;2.10;;;;;;;19.21;98.68;99096.94;5093704;28;20199;-79
2022/08/13 03:00:33;;;;;;;4.50;1.87;;;;;;;19.10;99.37;99111.44;5090896;28;20654;-79
2022/08/13 03:03:02;;;;;;;3.27;1.90;;;;;;;19.21;98.44;99102.31;5093625;28;20196;-79
2022/08/13 03:05:37;;;;;;;4.10;2.07;;;;;;;19.32;97.95;99091.34;5092527;28;20196;-79
2022/08/13 03:08:27;;;;;;;3.33;2.00;;;;;;;19.21;98.55;99095.09;5064418;28;20212;-79
2022/08/13 03:11:09;;;;;;;4.03;2.07;;;;;;;19.35;97.81;99096.38;5091442;28;20203;-79
2022/08/13 03:13:45;;;;;;;3.43;2.07;;;;;;;19.34;98.13;99097.38;5093933;28;20230;-79
2022/08/13 03:16:21;;;;;;;4.13;1.90;;;;;;;19.48;96.96;99093.28;5093990;28;20230;-79
2022/08/13 03:18:51;;;;;;;2.70;1.80;;;;;;;19.47;96.95;99094.28;5091835;28;20287;-79
2022/08/13 03:21:23;;;;;;;2.30;1.67;;;;;;;19.62;95.53;99093.59;5089888;28;20203;-79
2022/08/13 03:24:13;;;;;;;3.03;1.80;;;;;;;19.61;95.45;99099.13;5091481;28;20204;-79
2022/08/13 03:26:48;;;;;;;2.40;1.87;;;;;;;19.78;94.36;99102.75;5091558;28;20195;-79
2022/08/13 03:29:23;;;;;;;3.47;1.63;;;;;;;19.61;94.80;99101.84;5092599;28;20196;-79
2022/08/13 03:31:57;;;;;;;2.67;2.00;;;;;;;19.56;95.00;99098.75;5093361;28;20199;-79
2022/08/13 03:34:28;;;;;;;6.50;2.03;;;;;;;19.50;95.22;99104.75;5087557;28;20646;-79
2022/08/13 03:36:57;;;;;;;3.77;1.83;;;;;;;19.50;95.47;99096.69;5093078;28;20199;-79
2022/08/13 03:39:25;;;;;;;4.07;2.23;;;;;;;19.59;94.87;99098.44;5092534;28;20650;-79
2022/08/13 03:41:55;;;;;;;3.97;2.20;;;;;;;19.54;95.32;99101.56;5091811;28;20211;-78
2022/08/13 03:44:30;;;;;;;3.53;1.70;;;;;;;19.51;95.53;99111.81;5092981;28;20195;-79
2022/08/13 03:47:03;;;;;;;4.70;1.83;;;;;;;19.58;94.97;99105.66;5091711;28;20206;-79
2022/08/13 03:49:51;;;;;;;2.47;1.80;;;;;;;19.51;95.11;99103.75;5091963;28;20195;-79
2022/08/13 03:52:20;;;;;;;2.47;1.97;;;;;;;19.44;95.51;99096.28;5095250;28;20216;-79
2022/08/13 03:55:06;;;;;;;3.00;2.10;;;;;;;19.44;95.84;99093.59;5090563;28;20209;-79
2022/08/13 03:57:39;;;;;;;3.53;2.00;;;;;;;19.23;97.28;99095.78;5030764;28;20193;-79
2022/08/13 04:00:32;;;;;;;3.63;1.87;;;;;;;19.34;97.13;99092.00;5030653;28;20201;-79
2022/08/13 04:03:13;;;;;;;5.03;2.00;;;;;;;19.33;97.31;99088.50;5028271;28;20197;-80
2022/08/13 04:05:43;;;;;;;3.63;1.90;;;;;;;19.27;97.75;99089.09;5022827;28;20284;-78
2022/08/13 04:08:28;;;;;;;2.17;1.97;;;;;;;19.21;98.16;99091.56;5028852;28;20217;-79
2022/08/13 04:10:57;;;;;;;3.95;2.20;;;;;;;19.36;97.68;99088.16;5027915;28;20390;-78
2022/08/13 04:13:29;;;;;;;2.43;1.80;;;;;;;19.37;97.05;99092.53;5024248;28;20218;-79
2022/08/13 04:16:22;;;;;;;4.20;1.80;;;;;;;19.45;96.34;99092.59;5030588;28;20338;-79
2022/08/13 04:19:01;;;;;;;7.57;1.80;;;;;;;19.44;96.49;99098.13;5025735;28;20208;-79
2022/08/13 04:21:33;;;;;;;5.43;1.60;;;;;;;19.38;96.62;99088.84;5041434;28;20195;-79
2022/08/13 04:24:03;;;;;;;3.40;2.10;;;;;;;19.38;96.63;99096.06;5092759;28;20202;-79
2022/08/13 04:26:34;;;;;;;3.00;2.30;;;;;;;19.35;96.83;99107.13;5088632;28;20253;-79
2022/08/13 04:29:05;;;;;;;3.23;2.00;;;;;;;19.44;96.27;99096.28;5092341;28;20274;-79
2022/08/13 04:31:37;;;;;;;5.67;2.00;;;;;;;19.40;96.80;99086.88;5088023;28;20274;-79
2022/08/13 04:34:19;;;;;;;4.30;1.93;;;;;;;19.43;96.55;99094.59;5088846;28;20216;-79
2022/08/13 04:37:08;;;;;;;3.80;1.90;;;;;;;19.41;96.53;99093.94;5092641;28;20647;-78
2022/08/13 04:39:51;;;;;;;4.67;1.90;;;;;;;19.48;95.66;99090.59;5091696;28;20199;-79
2022/08/13 04:42:53;;;;;;;2.00;1.80;;;;;;;19.54;95.53;99093.50;5095088;28;20282;-79
2022/08/13 04:45:23;;;;;;;2.17;1.70;;;;;;;19.62;95.38;99092.75;5095360;28;20184;-79
2022/08/13 04:47:58;;;;;;;2.20;1.63;;;;;;;19.55;95.46;99095.19;5095259;28;20712;-79
2022/08/13 04:50:29;;;;;;;2.00;1.80;;;;;;;19.56;95.58;99094.22;5096473;28;20237;-79
2022/08/13 04:52:59;;;;;;;1.80;1.70;;;;;;;19.49;95.77;99098.50;5096129;28;20242;-79
2022/08/13 04:55:29;;;;;;;3.47;1.70;;;;;;;19.61;95.77;99096.47;5097252;27;20204;-79
2022/08/13 04:58:18;;;;;;;1.93;1.53;;;;;;;19.66;95.19;99103.03;5096170;28;20324;-79
2022/08/13 05:00:50;;;;;;;2.20;1.60;;;;;;;19.73;94.69;99089.81;5096195;28;20279;-79
2022/08/13 05:03:22;;;;;;;3.20;1.80;;;;;;;19.68;94.44;99100.19;5095926;28;20253;-78
2022/08/13 05:06:00;;;;;;;2.47;1.70;;;;;;;19.77;94.49;99103.75;5096792;28;20669;-78
2022/08/13 05:08:33;;;;;;;5.67;1.90;;;;;;;19.68;94.72;99102.88;5095771;28;20196;-78
2022/08/13 05:11:06;;;;;;;2.97;1.57;;;;;;;19.76;95.40;99107.47;5092471;28;20280;-78
2022/08/13 05:13:48;;;;;;;3.00;1.90;;;;;;;19.90;94.37;99101.50;5097547;27;20682;-78
2022/08/13 05:16:25;;;;;;;4.00;1.80;;;;;;;19.95;94.41;99102.72;5094017;28;20260;-79
2022/08/13 05:18:58;;;;;;;3.50;1.80;;;;;;;19.98;94.59;99107.78;5096423;27;20293;-79
2022/08/13 05:21:26;;;;;;;5.73;1.87;;;;;;;20.07;94.81;99116.72;5090354;28;20209;-79
2022/08/13 05:24:15;;;;;;;5.13;1.80;;;;;;;20.00;96.04;99105.78;5096314;28;20203;-79
2022/08/13 05:27:04;;;;;;;5.00;2.07;;;;;;;20.01;96.79;99112.84;5095771;28;20188;-79
2022/08/13 05:29:39;;;;;;;1.98;1.52;;;;;;;20.25;95.75;99114.78;5075617;28;20270;-79
2022/08/13 05:32:29;;;;;;;2.50;1.70;;;;;;;20.35;95.40;99119.22;5095158;28;20500;-79
2022/08/13 05:35:11;;;;;;;5.10;1.70;;;;;;;20.43;95.45;99114.75;5094065;28;20223;-79
2022/08/13 05:37:42;;;;;;;2.40;1.90;;;;;;;20.53;95.93;99118.16;5091160;28;20187;-79
2022/08/13 05:40:30;;;;;;;3.58;1.52;;;;;;;20.57;96.52;99118.69;5095045;28;20285;-79
2022/08/13 05:43:10;;;;;;;2.60;1.70;;;;;;;20.57;97.58;99119.53;5092914;28;20253;-79
2022/08/13 05:45:39;;;;;;;5.10;1.90;;;;;;;20.56;97.27;99112.47;5097587;28;20199;-79
2022/08/13 05:48:20;;;;;;;4.90;1.93;;;;;;;20.64;97.31;99125.06;5078702;28;20680;-79
2022/08/13 05:50:59;;;;;;;4.80;1.90;;;;;;;20.67;97.34;99115.84;5093686;28;20199;-79
2022/08/13 05:53:28;;;;;;;2.95;1.83;;;;;;;20.58;97.16;99121.22;5094633;28;20738;-79
2022/08/13 05:56:16;;;;;;;4.28;1.90;;;;;;;20.84;95.37;99122.94;5094952;28;20252;-78
2022/08/13 05:58:46;;;;;;;3.93;1.80;;;;;;;20.90;96.09;99116.06;5097151;28;20295;-78
2022/08/13 06:04:03;;;;;;;2.87;2.00;;;;;;;21.02;95.00;99123.66;5093204;28;20260;-79
2022/08/13 06:06:52;;;;;;;3.97;1.70;;;;;;;21.07;94.40;99131.25;5094797;28;20188;-79
2022/08/13 06:09:21;;;;;;;3.10;1.70;;;;;;;21.09;94.19;99123.84;5094368;28;20274;-79
2022/08/13 06:11:59;;;;;;;5.47;1.80;;;;;;;21.05;94.10;99119.81;5089961;28;20672;-79
2022/08/13 06:14:50;;;;;;;4.22;1.83;;;;;;;20.94;94.63;99125.50;5094451;28;20246;-79
2022/08/13 06:17:23;;;;;;;7.78;2.40;;;;;;;21.07;94.32;99121.31;5090049;28;20204;-79
2022/08/13 06:19:55;;;;;;;5.43;2.10;;;;;;;20.92;93.70;99122.97;5095825;28;20191;-79
2022/08/13 06:22:25;;;;;;;4.95;2.13;;;;;;;21.07;93.52;99123.19;5087354;28;20196;-79
2022/08/13 06:24:54;;;;;;;5.38;1.92;;;;;;;21.22;92.75;99117.97;5089191;28;20195;-79
2022/08/13 06:27:24;;;;;;;8.35;2.08;;;;;;;21.27;92.65;99129.13;5048546;28;20215;-79
2022/08/13 06:30:14;;;;;;;3.83;2.13;;;;;;;21.35;91.54;99118.34;5051944;28;20239;-79
2022/08/13 06:33:02;;;;;;;2.88;2.30;;;;;;;21.51;90.90;99115.66;5050968;28;20204;-79
2022/08/13 06:35:52;;;;;;;3.45;2.10;;;;;;;21.70;89.88;99115.28;5050915;28;20210;-79
2022/08/13 06:38:28;;;;;;;1.92;1.83;;;;;;;21.89;89.00;99119.47;5046134;28;20201;-79
2022/08/13 06:41:02;;;;;;;3.92;2.33;;;;;;;22.01;87.66;99122.69;5049449;28;20228;-79
2022/08/13 06:43:32;;;;;;;5.32;2.20;;;;;;;22.22;87.23;99117.59;5048268;28;20189;-79
2022/08/13 06:46:17;;;;;;;10.15;2.10;;;;;;;22.33;85.43;99116.38;5087536;28;20227;-79
2022/08/13 06:48:57;;;;;;;2.67;2.10;;;;;;;22.14;86.38;99120.31;5093634;28;20233;-79
2022/08/13 06:51:32;;;;;;;3.20;1.70;;;;;;;22.28;83.71;99121.44;5088536;28;20209;-78
2022/08/13 06:54:09;;;;;;;4.93;2.00;;;;;;;22.50;80.87;99125.25;5088503;28;20211;-79
2022/08/13 06:56:58;;;;;;;4.78;1.85;;;;;;;22.60;78.78;99122.34;5093549;28;20208;-79
2022/08/13 06:59:47;;;;;;;2.85;1.60;;;;;;;22.90;78.09;99126.09;5093708;28;20199;-79
2022/08/13 07:02:40;;;;;;;4.22;1.60;;;;;;;23.09;76.74;99128.34;5093942;28;20199;-79
2022/08/13 07:05:12;;;;;;;2.58;1.98;;;;;;;23.11;76.00;99127.13;5087540;28;20664;-79
2022/08/13 07:07:50;;;;;;;1.80;1.67;;;;;;;23.41;75.39;99119.97;5092995;28;20195;-79
2022/08/13 07:10:21;;;;;;;2.97;1.70;;;;;;;23.50;74.16;99122.63;5087032;28;20218;-79
2022/08/13 07:12:51;;;;;;;2.88;1.65;;;;;;;23.44;73.78;99118.78;5093958;28;20191;-79
2022/08/13 07:15:21;;;;;;;1.70;1.60;;;;;;;23.63;72.95;99126.41;5089733;28;20629;-79
2022/08/13 07:18:07;;;;;;;1.75;1.65;;;;;;;23.73;72.88;99125.31;5093934;28;20192;-79
2022/08/13 07:20:38;;;;;;;3.05;1.83;;;;;;;23.87;71.95;99119.09;5088321;28;20199;-79
2022/08/13 07:23:06;;;;;;;2.22;1.65;;;;;;;24.01;71.23;99126.38;5092899;28;20200;-79
2022/08/13 07:25:57;;;;;;;3.60;1.60;;;;;;;24.09;71.40;99120.91;5093542;28;20356;-79
2022/08/13 07:28:28;;;;;;;4.10;1.60;;;;;;;24.16;70.69;99108.31;5089967;28;20195;-79
2022/08/13 07:31:19;;;;;;;3.00;1.58;;;;;;;24.27;68.21;99120.53;5093167;28;20195;-79
2022/08/13 07:33:53;;;;;;;2.95;1.58;;;;;;;24.47;65.85;99116.25;5090398;28;20229;-79
2022/08/13 07:36:29;;;;;;;2.55;1.70;;;;;;;24.45;65.79;99114.78;5093013;28;20195;-79
2022/08/13 07:39:01;;;;;;;2.78;1.70;;;;;;;24.57;65.08;99120.53;5093373;28;20184;-79
2022/08/13 07:41:40;;;;;;;2.35;1.50;;;;;;;24.85;63.74;99107.97;5091139;28;20284;-79
2022/08/13 07:44:28;;;;;;;7.10;2.00;;;;;;;25.00;62.98;99110.66;5093166;28;20212;-79
2022/08/13 07:46:59;;;;;;;4.47;1.80;;;;;;;25.15;61.73;99108.75;5095479;27;20651;-79
2022/08/13 07:49:28;;;;;;;2.85;1.90;;;;;;;25.31;61.75;99105.78;5091882;28;20275;-80
2022/08/13 07:52:13;;;;;;;5.22;1.67;;;;;;;25.50;60.12;99106.16;5089948;28;20203;-79
2022/08/13 07:54:46;;;;;;;5.45;1.80;;;;;;;25.33;60.74;99111.84;5094942;28;20216;-79
2022/08/13 07:57:18;;;;;;;1.77;1.67;;;;;;;25.57;58.67;99115.19;5092632;28;20195;-79
2022/08/13 08:00:07;;;;;;;5.05;2.08;;;;;;;25.73;59.24;99114.09;5093990;28;20207;-79
2022/08/13 08:02:48;;;;;;;1.92;1.20;;;;;;;25.74;57.61;99113.91;5070137;28;20200;-79
2022/08/13 08:05:20;;;;;;;1.77;1.63;;;;;;;25.71;56.60;99105.31;5091204;28;20274;-79
2022/08/13 08:07:52;;;;;;;1.60;1.50;;;;;;;25.99;54.68;99113.47;5086624;28;20207;-79
2022/08/13 08:10:36;;;;;;;3.90;1.55;;;;;;;26.07;54.77;99114.16;5089930;28;20208;-80
2022/08/13 08:13:06;;;;;;;2.88;1.65;;;;;;;26.25;54.60;99105.50;5092660;28;20211;-79
2022/08/13 08:15:37;;;;;;;3.20;1.50;;;;;;;26.36;54.72;99110.34;5088282;28;20220;-80
2022/08/13 08:18:28;;;;;;;3.15;1.70;;;;;;;26.23;53.68;99111.09;5093284;28;20195;-79
2022/08/13 08:21:17;;;;;;;1.88;1.50;;;;;;;26.53;51.14;99111.69;5096971;28;20211;-80
2022/08/13 08:24:06;;;;;;;2.60;1.58;;;;;;;26.57;51.10;99106.72;5096849;28;20219;-79
2022/08/13 08:26:51;;;;;;;5.03;1.83;;;;;;;26.37;51.83;99105.75;5097243;28;20195;-79
2022/08/13 08:29:21;;;;;;;3.58;1.77;;;;;;;26.62;52.08;99106.94;5096298;28;20215;-79
2022/08/13 08:31:52;;;;;;;5.85;1.70;;;;;;;26.67;51.58;99099.03;5096596;28;20218;-79
2022/08/13 08:34:29;;;;;;;1.85;1.60;;;;;;;26.81;51.19;99097.19;5096235;28;20209;-79
2022/08/13 08:36:58;;;;;;;3.13;1.50;;;;;;;26.73;51.36;99102.78;5096348;28;20241;-79
2022/08/13 08:42:39;;;;;;;3.30;1.70;;;;;;;27.44;47.34;99102.38;5096198;28;20187;-79
2022/08/13 08:45:31;;;;;;;4.75;3.42;;;;;;;27.57;46.49;99097.75;5096697;28;20191;-79
2022/08/13 08:48:21;;;;;;;2.95;1.65;;;;;;;27.71;45.52;99095.94;5096242;28;20261;-80
2022/08/13 08:50:54;;;;;;;1.95;1.55;;;;;;;27.62;44.53;99095.25;5095892;28;20188;-79
2022/08/13 08:53:25;;;;;;;3.03;1.70;;;;;;;27.73;45.21;99096.56;5078006;28;20245;-79
2022/08/13 08:56:16;;;;;;;2.85;1.70;;;;;;;27.69;46.18;99089.84;5095920;28;20215;-79
2022/08/13 08:58:45;;;;;;;3.78;1.95;;;;;;;27.92;45.76;99092.13;5090975;28;20204;-79
2022/08/13 09:01:21;;;;;;;1.92;1.70;;;;;;;28.07;45.15;99094.59;5070319;28;20200;-79
2022/08/13 09:03:53;;;;;;;4.15;2.30;;;;;;;27.97;45.13;99088.75;5068181;28;20199;-80
2022/08/13 09:06:28;;;;;;;8.27;1.90;;;;;;;28.16;44.41;99093.34;5073508;28;20195;-79
2022/08/13 09:09:19;;;;;;;3.00;2.30;;;;;;;28.18;44.49;99088.50;5073493;28;20208;-79
2022/08/13 09:11:52;;;;;;;1.73;1.48;;;;;;;28.40;43.89;99076.31;5073446;28;20196;-79
2022/08/13 09:14:26;;;;;;;4.82;1.90;;;;;;;28.46;43.80;99083.63;5073511;28;20210;-79
2022/08/13 09:16:59;;;;;;;2.47;1.67;;;;;;;28.36;44.13;99077.78;5071065;28;20303;-79
2022/08/13 09:19:28;;;;;;;2.13;1.60;;;;;;;28.28;43.94;99077.16;5081024;28;20226;-80
2022/08/13 09:22:19;;;;;;;2.60;1.80;;;;;;;28.67;43.03;99078.94;5095985;28;20275;-79
2022/08/13 09:24:56;;;;;;;1.98;1.65;;;;;;;28.70;42.70;99081.22;5094449;28;20192;-79
2022/08/13 09:27:28;;;;;;;2.63;2.40;;;;;;;28.68;42.21;99075.16;5089380;28;20188;-79
2022/08/13 09:30:17;;;;;;;1.92;1.60;;;;;;;29.25;40.78;99076.13;5094782;28;20208;-79
2022/08/13 09:32:56;;;;;;;1.85;1.70;;;;;;;29.02;40.83;99077.50;5093506;28;20290;-79
2022/08/13 09:35:26;;;;;;;3.42;1.80;;;;;;;29.08;40.91;99082.09;5092025;28;20246;-79
2022/08/13 09:38:06;;;;;;;1.95;1.80;;;;;;;29.17;40.45;99076.38;5068031;28;20203;-80
2022/08/13 09:40:47;;;;;;;2.65;1.58;;;;;;;29.42;39.88;99066.31;5071036;28;20328;-80
2022/08/13 09:43:40;;;;;;;2.55;1.80;;;;;;;29.26;39.65;99072.34;5072556;28;20188;-79
2022/08/13 09:46:16;;;;;;;2.17;1.98;;;;;;;29.60;38.80;99073.75;5069401;28;20208;-79
2022/08/13 09:48:51;;;;;;;1.73;1.60;;;;;;;29.80;38.61;99071.69;5071412;28;20223;-80
2022/08/13 09:51:24;;;;;;;3.30;1.80;;;;;;;29.52;38.97;99063.94;5066912;28;20193;-80
2022/08/13 09:54:14;;;;;;;2.97;1.63;;;;;;;29.89;38.32;99061.31;5072893;28;20200;-79
2022/08/13 09:56:47;;;;;;;3.88;2.03;;;;;;;29.77;38.46;99055.75;5071308;28;20230;-80
2022/08/13 09:59:20;;;;;;;2.92;1.88;;;;;;;30.27;37.52;99063.03;5010060;28;20201;-80
2022/08/13 10:02:02;;;;;;;3.05;2.00;;;;;;;30.63;37.13;99053.97;5023369;28;20204;-80
2022/08/13 10:04:38;;;;;;;2.58;1.67;;;;;;;30.96;36.06;99056.28;5047971;28;20220;-80
2022/08/13 10:07:09;;;;;;;2.33;1.80;;;;;;;31.06;36.27;99045.59;5052404;28;20219;-80
2022/08/13 10:09:49;;;;;;;1.92;1.48;;;;;;;30.24;37.04;99039.75;5051753;28;20224;-80
2022/08/13 10:12:38;;;;;;;2.33;1.42;;;;;;;30.83;32.15;99043.63;5052386;28;20208;-80
2022/08/13 10:15:09;;;;;;;3.25;1.40;;;;;;;30.47;32.41;99045.31;5052641;28;20239;-80
2022/08/13 10:17:54;;;;;;;1.88;1.50;;;;;;;31.01;31.67;99040.00;5077206;28;20703;-80
2022/08/13 10:20:33;;;;;;;2.30;2.10;;;;;;;31.21;31.78;99040.56;5095560;27;20200;-80
2022/08/13 10:23:04;;;;;;;2.13;1.92;;;;;;;31.14;32.79;99033.47;5091951;28;20219;-80
2022/08/13 10:25:33;;;;;;;2.60;1.42;;;;;;;31.28;33.15;99022.13;5093508;28;20667;-79
2022/08/13 10:28:22;;;;;;;2.80;1.67;;;;;;;31.25;33.39;99024.50;5097086;27;20271;-80
2022/08/13 10:30:58;;;;;;;2.55;1.48;;;;;;;31.80;33.07;99018.72;5091447;28;20237;-80
2022/08/13 10:33:47;;;;;;;2.83;1.40;;;;;;;31.39;33.40;99019.66;5093151;28;20203;-80
2022/08/13 10:36:18;;;;;;;2.80;1.70;;;;;;;31.45;31.95;99015.94;5083898;28;20220;-80
2022/08/13 10:38:47;;;;;;;3.80;1.60;;;;;;;31.62;31.69;99022.38;5093934;28;20195;-79
2022/08/13 10:41:22;;;;;;;2.33;1.30;;;;;;;32.13;30.27;99013.44;5085828;28;20249;-79
2022/08/13 10:43:51;;;;;;;1.30;1.20;;;;;;;32.33;28.75;99012.22;5051140;28;20264;-80
2022/08/13 10:46:28;;;;;;;1.95;1.50;;;;;;;32.39;27.98;99006.59;5050120;28;20200;-80
2022/08/13 10:48:59;;;;;;;9.60;8.32;;;;;;;32.69;28.24;99006.34;5048225;28;20271;-80
2022/08/13 10:51:30;;;;;;;1.58;1.48;;;;;;;32.05;28.90;99013.81;5051521;28;20635;-80
2022/08/13 10:54:11;;;;;;;2.95;1.38;;;;;;;32.84;28.04;99003.13;5050856;28;20197;-80
2022/08/13 10:56:48;;;;;;;1.50;1.40;;;;;;;32.05;28.04;99004.78;5051219;28;20225;-80
2022/08/13 10:59:19;;;;;;;2.42;1.40;;;;;;;32.55;28.13;98995.94;5046255;28;20231;-80
2022/08/13 11:01:47;;;;;;;3.67;1.50;;;;;;;33.03;28.43;99000.97;5047066;28;20279;-80
2022/08/13 11:04:19;;;;;;;2.50;1.20;;;;;;;32.66;28.57;99001.38;5047831;28;20205;-80
2022/08/13 11:07:00;;;;;;;2.33;1.60;;;;;;;32.60;28.46;98994.13;5051477;28;20197;-81
2022/08/13 11:09:29;;;;;;;3.53;1.50;;;;;;;32.94;27.73;98986.81;5086567;28;20199;-79
2022/08/13 11:12:07;;;;;;;1.85;1.45;;;;;;;33.11;28.05;98992.34;5091854;28;20209;-80
2022/08/13 11:14:37;;;;;;;1.45;1.35;;;;;;;33.15;27.54;98981.69;5091155;28;20203;-80
2022/08/13 11:17:09;;;;;;;1.60;1.50;;;;;;;33.13;27.10;98986.59;5090144;28;20250;-80
2022/08/13 11:20:03;;;;;;;2.47;1.30;;;;;;;33.20;26.78;98982.63;5092129;28;20192;-81
2022/08/13 11:22:37;;;;;;;1.50;1.30;;;;;;;33.58;26.82;98976.34;5090725;28;20195;-80
2022/08/13 11:25:10;;;;;;;1.83;1.50;;;;;;;33.59;27.25;98979.94;5091498;28;20273;-80
2022/08/13 11:27:59;;;;;;;1.45;1.25;;;;;;;33.15;27.84;98973.44;5093539;28;20221;-80
2022/08/13 11:30:27;;;;;;;1.40;1.30;;;;;;;33.30;28.26;98969.03;5056968;28;20191;-80
2022/08/13 11:33:05;;;;;;;2.95;1.70;;;;;;;32.67;28.91;98966.53;5093190;28;20192;-80
2022/08/13 11:35:42;;;;;;;2.75;2.00;;;;;;;33.07;28.15;98969.19;5091487;28;20191;-80
2022/08/13 11:38:19;;;;;;;2.60;1.80;;;;;;;33.67;27.40;98964.94;5092585;28;20261;-80
2022/08/13 11:40:49;;;;;;;1.65;1.55;;;;;;;33.23;27.50;98970.28;5089314;28;20385;-80
2022/08/13 11:43:22;;;;;;;3.30;1.58;;;;;;;33.94;26.07;98965.06;5091539;28;20191;-80
2022/08/13 11:46:11;;;;;;;3.78;1.88;;;;;;;33.07;26.95;98965.63;5093448;28;20203;-81
2022/08/13 11:48:41;;;;;;;3.05;1.55;;;;;;;33.36;27.65;98956.25;5088354;28;20195;-80
2022/08/13 11:51:21;;;;;;;2.47;1.80;;;;;;;33.36;28.02;98959.00;5091854;28;20202;-80
2022/08/13 11:53:58;;;;;;;3.72;1.55;;;;;;;33.08;27.87;98956.31;5091212;28;20226;-80
2022/08/13 11:56:46;;;;;;;1.98;1.50;;;;;;;33.33;28.49;98956.72;5092921;28;20216;-80
2022/08/13 11:59:18;;;;;;;3.15;1.40;;;;;;;33.80;27.85;98951.66;5089397;28;20199;-80
2022/08/13 12:01:51;;;;;;;2.72;1.92;;;;;;;33.15;28.42;98949.56;5093119;28;20241;-80
2022/08/13 12:04:21;;;;;;;1.88;1.70;;;;;;;33.70;28.38;98957.03;5091766;28;20191;-80
2022/08/13 12:06:54;;;;;;;2.45;1.50;;;;;;;34.31;27.08;98959.75;5090515;28;20246;-80
2022/08/13 12:09:28;;;;;;;2.00;1.70;;;;;;;34.26;26.69;98949.53;5095354;27;20203;-81
2022/08/13 12:12:16;;;;;;;2.33;1.80;;;;;;;34.13;26.96;98945.25;5091318;28;20227;-81
2022/08/13 12:14:50;;;;;;;3.10;1.35;;;;;;;34.21;26.56;98935.72;5092636;28;20183;-80
2022/08/13 12:17:21;;;;;;;1.98;1.40;;;;;;;33.64;27.00;98929.72;5092600;28;20257;-80
2022/08/13 12:20:12;;;;;;;1.48;1.38;;;;;;;34.49;26.35;98931.91;5090449;28;20237;-80
2022/08/13 12:22:49;;;;;;;2.03;1.83;;;;;;;34.60;27.76;98941.94;5089913;28;20214;-80
2022/08/13 12:25:22;;;;;;;1.90;1.45;;;;;;;34.57;27.55;98942.47;5090570;28;20188;-81
2022/08/13 12:28:17;;;;;;;2.92;1.80;;;;;;;34.13;28.14;98936.16;5093057;28;20195;-81
2022/08/13 12:30:51;;;;;;;2.42;1.63;;;;;;;34.10;29.06;98931.19;5092934;28;20188;-81
2022/08/13 12:33:21;;;;;;;2.63;1.80;;;;;;;34.92;28.24;98941.16;5093900;28;20200;-81